createdAt,value
2022-12-31T00:00:22.653Z,11.92
2022-12-31T00:02:49.549Z,10.64
2022-12-31T00:05:17.803Z,11.48
2022-12-31T00:07:44.833Z,12.53
2022-12-31T00:10:11.715Z,12.89
2022-12-31T00:12:38.614Z,13.16
2022-12-31T00:15:05.958Z,12.00
2022-12-31T00:17:32.674Z,12.70
2022-12-31T00:19:59.727Z,11.26
2022-12-31T00:22:26.548Z,13.84
2022-12-31T00:24:53.531Z,13.77
2022-12-31T00:27:22.358Z,13.17
2022-12-31T00:29:49.083Z,11.90
2022-12-31T00:32:16.512Z,10.71
2022-12-31T00:34:43.235Z,11.40
2022-12-31T00:37:10.125Z,11.65
2022-12-31T00:39:37.299Z,12.67
2022-12-31T00:42:04.116Z,10.33
2022-12-31T00:44:31.151Z,10.58
2022-12-31T00:46:57.864Z,11.02
2022-12-31T00:49:24.696Z,11.53
2022-12-31T00:51:52.256Z,10.27
2022-12-31T00:54:19.026Z,11.27
2022-12-31T00:56:46.117Z,10.20
2022-12-31T00:59:12.967Z,11.20
2022-12-31T01:01:40.834Z,9.60
2022-12-31T01:04:13.818Z,11.39
2022-12-31T01:06:41.616Z,11.34
2022-12-31T01:09:09.604Z,10.24
2022-12-31T01:11:36.516Z,10.40
2022-12-31T01:14:15.744Z,11.88
2022-12-31T01:16:51.404Z,9.17
2022-12-31T01:19:24.320Z,11.04
2022-12-31T01:21:52.556Z,12.13
2022-12-31T01:24:20.523Z,12.05
2022-12-31T01:26:49.263Z,11.41
2022-12-31T01:29:17.050Z,11.34
2022-12-31T01:31:44.015Z,12.31
2022-12-31T01:34:10.818Z,14.21
2022-12-31T01:36:39.088Z,13.58
2022-12-31T01:39:07.736Z,14.35
2022-12-31T01:41:40.225Z,13.83
2022-12-31T01:44:12.693Z,13.21
2022-12-31T01:46:45.385Z,14.33
2022-12-31T01:49:36.837Z,12.14
2022-12-31T01:52:08.973Z,15.11
2022-12-31T01:54:43.043Z,13.65
2022-12-31T01:57:11.316Z,12.56
2022-12-31T01:59:38.374Z,13.11
2022-12-31T02:02:06.106Z,15.56
2022-12-31T02:04:33.179Z,14.58
2022-12-31T02:07:07.093Z,14.57
2022-12-31T02:09:38.243Z,13.57
2022-12-31T02:12:06.330Z,12.08
2022-12-31T02:14:39.803Z,11.43
2022-12-31T02:17:22.615Z,13.86
2022-12-31T02:20:19.409Z,14.92
2022-12-31T02:23:17.020Z,14.11
2022-12-31T02:25:50.097Z,13.58
2022-12-31T02:28:38.660Z,14.23
2022-12-31T02:31:17.164Z,14.86
2022-12-31T02:33:52.790Z,15.24
2022-12-31T02:36:24.722Z,12.83
2022-12-31T02:38:52.967Z,13.16
2022-12-31T02:41:39.416Z,14.21
2022-12-31T02:44:39.606Z,14.72
2022-12-31T02:47:09.135Z,12.68
2022-12-31T02:50:13.350Z,13.55
2022-12-31T02:53:01.972Z,13.84
2022-12-31T02:55:47.243Z,14.86
2022-12-31T02:58:20.795Z,12.33
2022-12-31T03:01:15.041Z,13.20
2022-12-31T03:03:43.225Z,14.80
2022-12-31T03:06:11.568Z,14.44
2022-12-31T03:09:01.275Z,12.65
2022-12-31T03:11:57.612Z,14.56
2022-12-31T03:14:24.293Z,14.89
2022-12-31T03:16:51.745Z,15.61
2022-12-31T03:19:37.208Z,14.90
2022-12-31T03:22:22.510Z,14.52
2022-12-31T03:25:09.169Z,14.71
2022-12-31T03:27:35.923Z,14.78
2022-12-31T03:30:03.209Z,14.29
2022-12-31T03:32:30.456Z,14.95
2022-12-31T03:34:58.134Z,16.86
2022-12-31T03:37:24.846Z,13.97
2022-12-31T03:39:51.631Z,14.03
2022-12-31T03:42:18.520Z,13.66
2022-12-31T03:44:45.222Z,15.79
2022-12-31T03:47:11.991Z,14.33
2022-12-31T03:49:39.076Z,15.05
2022-12-31T03:52:06.533Z,16.59
2022-12-31T03:54:33.723Z,16.60
2022-12-31T03:57:00.576Z,13.67
2022-12-31T03:59:27.437Z,12.21
2022-12-31T04:01:54.314Z,15.02
2022-12-31T04:04:21.182Z,14.90
2022-12-31T04:06:48.260Z,15.22
2022-12-31T04:09:15.053Z,14.77
2022-12-31T04:11:41.736Z,14.79
2022-12-31T04:14:09.185Z,15.39
2022-12-31T04:16:35.944Z,14.96
2022-12-31T04:19:03.850Z,13.57
2022-12-31T04:21:34.964Z,14.52
2022-12-31T04:24:02.985Z,14.53
2022-12-31T04:26:29.869Z,13.57
2022-12-31T04:28:56.721Z,15.65
2022-12-31T04:31:24.021Z,14.87
2022-12-31T04:33:50.758Z,17.21
2022-12-31T04:36:18.561Z,15.34
2022-12-31T04:38:45.253Z,14.87
2022-12-31T04:41:18.020Z,15.03
2022-12-31T04:43:48.011Z,14.16
2022-12-31T04:46:15.577Z,15.73
2022-12-31T04:48:42.560Z,14.92
2022-12-31T04:51:09.609Z,13.53
2022-12-31T04:53:36.556Z,13.85
2022-12-31T04:56:03.955Z,14.52
2022-12-31T04:58:30.606Z,14.43
2022-12-31T05:00:57.733Z,14.90
2022-12-31T05:03:26.229Z,15.09
2022-12-31T05:05:54.623Z,14.54
2022-12-31T05:08:21.357Z,14.85
2022-12-31T05:10:49.682Z,13.49
2022-12-31T05:13:17.074Z,14.71
2022-12-31T05:15:45.832Z,16.28
2022-12-31T05:18:12.541Z,15.45
2022-12-31T05:20:39.931Z,15.77
2022-12-31T05:23:06.642Z,15.03
2022-12-31T05:25:34.067Z,15.32
2022-12-31T05:28:01.297Z,15.01
2022-12-31T05:30:28.131Z,15.13
2022-12-31T05:32:55.107Z,15.78
2022-12-31T05:35:22.377Z,14.26
2022-12-31T05:37:49.088Z,14.98
2022-12-31T05:40:15.866Z,15.53
2022-12-31T05:42:42.609Z,14.50
2022-12-31T05:45:13.479Z,14.71
2022-12-31T05:47:41.097Z,14.89
2022-12-31T05:50:15.388Z,15.00
2022-12-31T05:52:47.425Z,13.95
2022-12-31T05:55:14.657Z,12.99
2022-12-31T05:57:41.888Z,14.22
2022-12-31T06:00:11.027Z,12.59
2022-12-31T06:02:41.205Z,14.58
2022-12-31T06:05:09.025Z,14.35
2022-12-31T06:07:35.825Z,14.07
2022-12-31T06:10:05.447Z,14.72
2022-12-31T06:12:32.887Z,14.38
2022-12-31T06:14:59.752Z,14.58
2022-12-31T06:17:26.526Z,13.51
2022-12-31T06:19:53.238Z,11.66
2022-12-31T06:22:20.000Z,12.70
2022-12-31T06:24:46.810Z,12.69
2022-12-31T06:27:13.567Z,12.78
2022-12-31T06:29:41.047Z,14.05
2022-12-31T06:32:07.919Z,14.93
2022-12-31T06:34:34.675Z,13.63
2022-12-31T06:37:01.384Z,15.11
2022-12-31T06:39:28.206Z,14.78
2022-12-31T06:41:55.959Z,13.34
2022-12-31T06:44:22.871Z,14.61
2022-12-31T06:46:50.750Z,15.13
2022-12-31T06:49:18.329Z,14.73
2022-12-31T06:51:46.245Z,15.71
2022-12-31T06:54:13.762Z,13.30
2022-12-31T06:56:41.896Z,14.94
2022-12-31T06:59:23.105Z,13.70
2022-12-31T07:02:04.720Z,14.09
2022-12-31T07:04:37.554Z,13.09
2022-12-31T07:07:12.830Z,12.19
2022-12-31T07:09:54.987Z,14.63
2022-12-31T07:12:40.994Z,14.92
2022-12-31T07:15:11.172Z,12.44
2022-12-31T07:17:52.486Z,14.34
2022-12-31T07:20:20.685Z,13.29
2022-12-31T07:22:48.499Z,14.01
2022-12-31T07:25:17.119Z,12.95
2022-12-31T07:28:00.515Z,15.36
2022-12-31T07:30:44.151Z,13.52
2022-12-31T07:33:32.274Z,11.49
2022-12-31T07:36:40.363Z,11.95
2022-12-31T07:39:11.221Z,15.04
2022-12-31T07:42:01.994Z,13.96
2022-12-31T07:44:40.895Z,15.22
2022-12-31T07:47:22.795Z,14.93
2022-12-31T07:49:50.360Z,14.94
2022-12-31T07:52:17.567Z,14.63
2022-12-31T07:54:44.484Z,14.90
2022-12-31T07:57:17.131Z,14.97
2022-12-31T07:59:58.687Z,15.48
2022-12-31T08:02:59.576Z,14.98
2022-12-31T08:06:12.176Z,14.84
2022-12-31T08:08:53.638Z,16.01
2022-12-31T08:11:26.556Z,14.07
2022-12-31T08:13:56.556Z,15.51
2022-12-31T08:16:23.775Z,15.95
2022-12-31T08:18:50.871Z,15.98
2022-12-31T08:21:35.569Z,16.14
2022-12-31T08:24:10.548Z,15.82
2022-12-31T08:27:05.186Z,16.11
2022-12-31T08:29:43.926Z,14.60
2022-12-31T08:32:16.974Z,16.19
2022-12-31T08:34:56.351Z,15.12
2022-12-31T08:37:31.752Z,15.31
2022-12-31T08:40:27.211Z,14.82
2022-12-31T08:43:19.166Z,17.29
2022-12-31T08:45:49.259Z,19.97
2022-12-31T08:48:39.804Z,15.44
2022-12-31T08:51:14.303Z,15.97
2022-12-31T08:53:42.063Z,16.72
2022-12-31T08:56:20.656Z,13.92
2022-12-31T08:59:31.064Z,14.10
2022-12-31T09:02:11.010Z,15.63
2022-12-31T09:04:40.905Z,16.87
2022-12-31T09:07:09.594Z,17.67
2022-12-31T09:09:54.537Z,21.29
2022-12-31T09:12:33.845Z,20.71
2022-12-31T09:15:13.213Z,21.89
2022-12-31T09:17:44.630Z,20.45
2022-12-31T09:20:24.160Z,17.55
2022-12-31T09:22:52.348Z,21.67
2022-12-31T09:25:22.168Z,18.96
2022-12-31T09:27:49.421Z,17.76
2022-12-31T09:30:17.789Z,18.15
2022-12-31T09:33:01.698Z,16.59
2022-12-31T09:35:37.485Z,17.94
2022-12-31T09:38:45.524Z,17.07
2022-12-31T09:41:39.622Z,18.94
2022-12-31T09:44:21.841Z,16.85
2022-12-31T09:47:27.467Z,17.80
2022-12-31T09:50:20.877Z,15.69
2022-12-31T09:53:25.224Z,22.77
2022-12-31T09:56:10.427Z,25.39
2022-12-31T09:59:02.992Z,23.77
2022-12-31T10:01:56.622Z,24.03
2022-12-31T10:04:45.613Z,25.24
2022-12-31T10:07:39.631Z,27.98
2022-12-31T10:10:13.514Z,24.14
2022-12-31T10:13:01.877Z,22.33
2022-12-31T10:15:45.463Z,22.87
2022-12-31T10:18:31.598Z,22.28
2022-12-31T10:21:20.075Z,24.04
2022-12-31T10:24:30.909Z,26.46
2022-12-31T10:27:32.011Z,23.32
2022-12-31T10:30:08.731Z,24.79
2022-12-31T10:32:44.797Z,23.56
2022-12-31T10:35:23.700Z,27.91
2022-12-31T10:38:18.283Z,28.56
2022-12-31T10:41:15.545Z,30.07
2022-12-31T10:44:17.524Z,25.04
2022-12-31T10:47:18.425Z,25.50
2022-12-31T10:50:13.093Z,26.83
2022-12-31T10:52:58.349Z,26.13
2022-12-31T10:55:43.839Z,23.36
2022-12-31T10:58:52.746Z,23.92
2022-12-31T11:01:34.870Z,26.84
2022-12-31T11:04:14.169Z,25.13
2022-12-31T11:07:02.491Z,25.81
2022-12-31T11:10:07.809Z,25.00
2022-12-31T11:13:01.735Z,23.77
2022-12-31T11:15:50.335Z,24.21
2022-12-31T11:18:20.689Z,23.74
2022-12-31T11:21:09.020Z,23.62
2022-12-31T11:23:46.701Z,26.32
2022-12-31T11:26:22.652Z,22.71
2022-12-31T11:29:13.639Z,22.19
2022-12-31T11:32:01.513Z,24.29
2022-12-31T11:34:37.299Z,26.47
2022-12-31T11:37:22.509Z,23.91
2022-12-31T11:39:52.266Z,24.50
2022-12-31T11:42:41.507Z,23.06
2022-12-31T11:45:21.975Z,24.60
2022-12-31T11:48:29.148Z,21.82
2022-12-31T11:50:50.183Z,24.70
2022-12-31T11:53:57.816Z,25.08
2022-12-31T11:56:28.695Z,24.03
2022-12-31T11:58:57.673Z,22.26
2022-12-31T12:01:36.382Z,22.70
2022-12-31T12:04:03.594Z,24.96
2022-12-31T12:06:33.018Z,26.30
2022-12-31T12:09:04.479Z,24.96
2022-12-31T12:11:35.407Z,25.18
2022-12-31T12:14:31.911Z,23.98
2022-12-31T12:17:04.868Z,24.03
2022-12-31T12:19:34.737Z,23.14
2022-12-31T12:22:13.024Z,23.68
2022-12-31T12:24:39.775Z,25.01
2022-12-31T12:27:21.563Z,22.60
2022-12-31T12:29:48.835Z,23.01
2022-12-31T12:32:21.595Z,21.76
2022-12-31T12:34:50.043Z,22.55
2022-12-31T12:37:33.233Z,21.13
2022-12-31T12:40:09.476Z,22.20
2022-12-31T12:42:36.735Z,22.46
2022-12-31T12:45:29.195Z,22.09
2022-12-31T12:47:59.785Z,22.19
2022-12-31T12:50:38.598Z,21.45
2022-12-31T12:53:05.634Z,22.08
2022-12-31T12:56:17.569Z,21.83
2022-12-31T12:59:02.796Z,21.64
2022-12-31T13:01:53.038Z,21.39
2022-12-31T13:04:35.774Z,23.51
2022-12-31T13:07:18.832Z,21.02
2022-12-31T13:09:57.012Z,22.85
2022-12-31T13:13:05.141Z,23.04
2022-12-31T13:15:31.980Z,22.43
2022-12-31T13:18:14.629Z,23.00
2022-12-31T13:20:57.215Z,21.90
2022-12-31T13:23:39.476Z,23.45
2022-12-31T13:26:22.265Z,22.78
2022-12-31T13:28:52.253Z,22.74
2022-12-31T13:31:30.277Z,21.92
2022-12-31T13:34:04.436Z,22.31
2022-12-31T13:36:35.973Z,23.56
2022-12-31T13:39:08.039Z,21.59
2022-12-31T13:41:41.859Z,20.72
2022-12-31T13:44:08.489Z,20.14
2022-12-31T13:47:00.819Z,22.86
2022-12-31T13:49:39.822Z,20.55
2022-12-31T13:52:27.648Z,20.41
2022-12-31T13:55:08.241Z,20.33
2022-12-31T13:58:08.135Z,19.51
2022-12-31T14:00:47.974Z,19.90
2022-12-31T14:03:40.338Z,22.29
2022-12-31T14:06:14.877Z,21.33
2022-12-31T14:08:41.612Z,19.21
2022-12-31T14:11:23.545Z,20.58
2022-12-31T14:14:12.478Z,22.13
2022-12-31T14:16:52.809Z,20.10
2022-12-31T14:19:55.364Z,20.94
2022-12-31T14:22:43.045Z,19.80
2022-12-31T14:25:36.650Z,20.85
2022-12-31T14:28:06.831Z,18.70
2022-12-31T14:30:39.168Z,17.85
2022-12-31T14:33:08.855Z,18.40
2022-12-31T14:35:45.478Z,19.10
2022-12-31T14:38:19.900Z,18.58
2022-12-31T14:41:23.809Z,17.25
2022-12-31T14:44:02.664Z,17.96
2022-12-31T14:47:15.435Z,20.46
2022-12-31T14:50:00.479Z,18.99
2022-12-31T14:52:35.771Z,20.00
2022-12-31T14:55:17.362Z,17.96
2022-12-31T15:00:33.188Z,18.02
2022-12-31T15:03:33.539Z,15.68
2022-12-31T15:06:23.905Z,17.87
2022-12-31T15:09:08.523Z,19.28
2022-12-31T15:11:46.157Z,15.93
2022-12-31T15:14:44.031Z,14.69
2022-12-31T15:17:22.994Z,18.85
2022-12-31T15:20:16.862Z,17.62
2022-12-31T15:22:53.225Z,18.36
2022-12-31T15:25:26.743Z,15.61
2022-12-31T15:27:54.478Z,15.90
2022-12-31T15:30:56.543Z,17.90
2022-12-31T15:33:35.295Z,16.02
2022-12-31T15:36:35.900Z,18.87
2022-12-31T15:39:11.689Z,18.61
2022-12-31T15:42:36.244Z,18.30
2022-12-31T15:44:55.407Z,17.48
2022-12-31T15:47:37.292Z,16.27
2022-12-31T15:50:08.360Z,18.11
2022-12-31T15:52:38.415Z,15.99
2022-12-31T15:55:06.847Z,17.81
2022-12-31T15:57:38.437Z,15.04
2022-12-31T16:00:19.655Z,14.21
2022-12-31T16:02:48.377Z,16.03
2022-12-31T16:05:24.606Z,13.60
2022-12-31T16:07:56.520Z,14.64
2022-12-31T16:10:33.169Z,14.17
2022-12-31T16:13:00.126Z,13.29
2022-12-31T16:15:30.303Z,15.25
2022-12-31T16:18:03.269Z,16.33
2022-12-31T16:20:32.797Z,17.53
2022-12-31T16:23:03.033Z,14.52
2022-12-31T16:25:33.043Z,15.21
2022-12-31T16:28:02.764Z,15.25
2022-12-31T16:30:36.415Z,16.56
2022-12-31T16:33:06.401Z,14.65
2022-12-31T16:35:39.006Z,14.84
2022-12-31T16:38:18.505Z,14.79
2022-12-31T16:41:16.882Z,15.37
2022-12-31T16:43:44.003Z,14.37
2022-12-31T16:46:31.869Z,12.26
2022-12-31T16:49:04.499Z,14.33
2022-12-31T16:51:36.905Z,12.01
2022-12-31T16:54:04.786Z,14.53
2022-12-31T16:56:36.912Z,11.43
2022-12-31T16:59:12.171Z,10.02
2022-12-31T17:01:40.310Z,11.78
2022-12-31T17:04:12.461Z,13.88
2022-12-31T17:06:39.422Z,15.45
2022-12-31T17:09:32.151Z,12.86
2022-12-31T17:12:16.764Z,13.31
2022-12-31T17:14:51.224Z,13.76
2022-12-31T17:17:27.555Z,14.51
2022-12-31T17:20:00.913Z,10.34
2022-12-31T17:22:35.842Z,9.97
2022-12-31T17:25:28.404Z,13.54
2022-12-31T17:28:00.932Z,13.66
2022-12-31T17:30:27.624Z,13.91
2022-12-31T17:33:07.907Z,11.29
2022-12-31T17:35:37.098Z,11.56
2022-12-31T17:38:22.316Z,9.72
2022-12-31T17:40:53.185Z,12.24
2022-12-31T17:43:22.275Z,13.77
2022-12-31T17:45:54.907Z,11.79
2022-12-31T17:48:24.493Z,11.56
2022-12-31T17:50:58.302Z,11.46
2022-12-31T17:53:25.716Z,10.25
2022-12-31T17:55:55.834Z,12.23
2022-12-31T17:58:32.562Z,12.34
2022-12-31T18:01:01.945Z,11.02
2022-12-31T18:03:28.818Z,13.41
2022-12-31T18:05:55.941Z,14.22
2022-12-31T18:08:23.186Z,10.94
2022-12-31T18:10:52.344Z,11.29
2022-12-31T18:13:25.954Z,13.05
2022-12-31T18:15:54.244Z,11.30
2022-12-31T18:18:27.757Z,12.57
2022-12-31T18:20:58.707Z,12.31
2022-12-31T18:23:26.684Z,12.99
2022-12-31T18:25:54.409Z,13.58
2022-12-31T18:28:21.779Z,12.43
2022-12-31T18:30:48.969Z,11.99
2022-12-31T18:33:22.438Z,10.97
2022-12-31T18:36:10.273Z,11.58
2022-12-31T18:38:37.677Z,10.99
2022-12-31T18:41:05.711Z,12.87
2022-12-31T18:43:33.228Z,12.91
2022-12-31T18:45:59.985Z,11.36
2022-12-31T18:48:26.785Z,12.91
2022-12-31T18:50:53.698Z,10.55
2022-12-31T18:53:23.632Z,12.58
2022-12-31T18:55:51.643Z,12.50
2022-12-31T18:58:18.459Z,12.51
2022-12-31T19:00:45.772Z,11.58
2022-12-31T19:03:19.794Z,11.52
2022-12-31T19:05:51.171Z,11.07
2022-12-31T19:08:20.971Z,9.28
2022-12-31T19:10:50.621Z,12.65
2022-12-31T19:13:19.896Z,11.24
2022-12-31T19:15:51.313Z,12.92
2022-12-31T19:18:19.793Z,11.11
2022-12-31T19:20:47.774Z,12.57
2022-12-31T19:23:22.403Z,10.86
2022-12-31T19:25:49.618Z,8.71
2022-12-31T19:28:22.512Z,10.37
2022-12-31T19:30:49.672Z,11.20
2022-12-31T19:33:23.851Z,13.83
2022-12-31T19:35:50.926Z,11.53
2022-12-31T19:38:21.898Z,11.10
2022-12-31T19:40:50.531Z,12.30
2022-12-31T19:43:20.155Z,9.18
2022-12-31T19:45:48.748Z,11.39
2022-12-31T19:48:24.677Z,10.93
2022-12-31T19:50:56.939Z,10.93
2022-12-31T19:53:26.533Z,12.05
2022-12-31T19:55:54.144Z,12.75
2022-12-31T19:58:25.516Z,9.90
2022-12-31T20:01:01.201Z,10.53
2022-12-31T20:03:29.376Z,11.82
2022-12-31T20:06:09.214Z,13.31
2022-12-31T20:08:37.627Z,11.30
2022-12-31T20:11:17.871Z,10.39
2022-12-31T20:13:46.576Z,8.85
2022-12-31T20:16:17.948Z,11.89
2022-12-31T20:18:46.262Z,10.20
2022-12-31T20:21:17.937Z,10.70
2022-12-31T20:23:44.791Z,10.82
2022-12-31T20:26:12.538Z,10.02
2022-12-31T20:28:39.614Z,10.69
2022-12-31T20:31:12.240Z,10.77
2022-12-31T20:33:39.594Z,12.05
2022-12-31T20:36:08.458Z,12.11
2022-12-31T20:38:35.306Z,10.84
2022-12-31T20:41:07.096Z,11.49
2022-12-31T20:43:35.448Z,11.82
2022-12-31T20:46:19.117Z,10.40
2022-12-31T20:48:48.003Z,9.92
2022-12-31T20:51:16.832Z,9.36
2022-12-31T20:53:59.148Z,12.08
2022-12-31T20:56:29.083Z,11.49
2022-12-31T20:58:56.586Z,12.33
2022-12-31T21:01:25.690Z,11.24
2022-12-31T21:04:10.406Z,12.19
2022-12-31T21:06:37.576Z,11.65
2022-12-31T21:09:07.643Z,11.39
2022-12-31T21:11:54.548Z,11.02
2022-12-31T21:14:21.711Z,11.59
2022-12-31T21:16:49.470Z,11.57
2022-12-31T21:19:16.162Z,12.17
2022-12-31T21:21:43.499Z,12.03
2022-12-31T21:24:10.914Z,12.57
2022-12-31T21:26:37.699Z,10.71
2022-12-31T21:29:05.063Z,10.45
2022-12-31T21:31:31.893Z,11.08
2022-12-31T21:33:58.700Z,7.55
2022-12-31T21:36:25.935Z,10.71
2022-12-31T21:38:53.107Z,10.59
2022-12-31T21:41:38.499Z,9.41
2022-12-31T21:44:05.346Z,10.50
2022-12-31T21:46:32.133Z,11.01
2022-12-31T21:49:00.764Z,11.45
2022-12-31T21:51:28.589Z,11.97
2022-12-31T21:53:55.504Z,10.14
2022-12-31T21:56:23.272Z,12.29
2022-12-31T21:59:17.229Z,12.20
2022-12-31T22:02:03.694Z,11.43
2022-12-31T22:07:17.757Z,9.23
2022-12-31T22:09:45.406Z,10.53
2022-12-31T22:12:12.662Z,10.95
2022-12-31T22:14:39.561Z,11.13
2022-12-31T22:17:26.757Z,8.90
2022-12-31T22:20:25.415Z,8.88
2022-12-31T22:22:41.475Z,10.25
2022-12-31T22:25:08.815Z,8.78
2022-12-31T22:27:35.587Z,8.97
2022-12-31T22:30:02.402Z,10.56
2022-12-31T22:32:29.079Z,9.50
2022-12-31T22:34:55.818Z,10.38
2022-12-31T22:37:54.892Z,8.83
2022-12-31T22:40:10.309Z,9.69
2022-12-31T22:42:37.418Z,9.71
2022-12-31T22:45:05.955Z,8.67
2022-12-31T22:47:32.822Z,8.68
2022-12-31T22:49:59.591Z,10.48
2022-12-31T22:52:26.771Z,7.67
2022-12-31T22:54:53.614Z,9.37
2022-12-31T22:57:20.601Z,8.13
2022-12-31T22:59:47.346Z,8.26
2022-12-31T23:02:14.287Z,9.72
2022-12-31T23:04:41.038Z,10.61
2022-12-31T23:07:07.839Z,9.82
2022-12-31T23:09:53.312Z,10.56
2022-12-31T23:12:21.200Z,10.12
2022-12-31T23:15:06.450Z,9.87
2022-12-31T23:17:51.808Z,11.97
2022-12-31T23:20:40.853Z,12.01
2022-12-31T23:23:12.457Z,11.95
2022-12-31T23:25:49.678Z,12.49
2022-12-31T23:28:24.992Z,13.21
2022-12-31T23:30:52.653Z,11.57
2022-12-31T23:33:26.031Z,12.29
2022-12-31T23:36:06.292Z,11.02
2022-12-31T23:38:33.090Z,12.20
2022-12-31T23:40:59.774Z,13.02
2022-12-31T23:43:26.845Z,13.82
2022-12-31T23:45:53.720Z,11.51
2022-12-31T23:48:21.204Z,10.21
2022-12-31T23:50:54.501Z,9.89
2022-12-31T23:53:25.122Z,10.35
2022-12-31T23:55:52.943Z,8.73
2022-12-31T23:58:21.257Z,9.12
